sensor_id;sensor_type;location;lat;lon;timestamp;temperature;humidity
10986;DHT22;5546;48.714;8.738;2024-02-23T00:01:50;7.80;99.90
10986;DHT22;5546;48.714;8.738;2024-02-23T00:04:15;8.10;99.90
10986;DHT22;5546;48.714;8.738;2024-02-23T00:06:41;8.10;99.90
10986;DHT22;5546;48.714;8.738;2024-02-23T00:09:06;8.40;99.90
10986;DHT22;5546;48.714;8.738;2024-02-23T00:11:32;8.70;99.90
10986;DHT22;5546;48.714;8.738;2024-02-23T00:13:59;8.80;99.90
10986;DHT22;5546;48.714;8.738;2024-02-23T00:16:25;8.80;99.90
10986;DHT22;5546;48.714;8.738;2024-02-23T00:18:51;8.70;99.90
10986;DHT22;5546;48.714;8.738;2024-02-23T00:21:17;8.50;99.90
10986;DHT22;5546;48.714;8.738;2024-02-23T00:23:43;8.40;99.90
10986;DHT22;5546;48.714;8.738;2024-02-23T00:26:08;8.10;99.90
10986;DHT22;5546;48.714;8.738;2024-02-23T00:28:34;7.90;99.90
10986;DHT22;5546;48.714;8.738;2024-02-23T00:30:59;7.80;99.90
10986;DHT22;5546;48.714;8.738;2024-02-23T00:33:25;7.80;99.90
10986;DHT22;5546;48.714;8.738;2024-02-23T00:35:50;8.20;99.90
10986;DHT22;5546;48.714;8.738;2024-02-23T00:38:16;8.20;99.90
10986;DHT22;5546;48.714;8.738;2024-02-23T00:40:41;7.80;99.90
10986;DHT22;5546;48.714;8.738;2024-02-23T00:43:07;7.80;99.90
10986;DHT22;5546;48.714;8.738;2024-02-23T00:45:32;8.30;99.90
10986;DHT22;5546;48.714;8.738;2024-02-23T00:47:58;8.20;99.90
10986;DHT22;5546;48.714;8.738;2024-02-23T00:50:24;8.50;99.90
10986;DHT22;5546;48.714;8.738;2024-02-23T00:52:51;8.70;99.90
10986;DHT22;5546;48.714;8.738;2024-02-23T00:55:18;8.90;99.90
10986;DHT22;5546;48.714;8.738;2024-02-23T01:00:11;8.30;99.90
10986;DHT22;5546;48.714;8.738;2024-02-23T01:02:37;8.40;99.90
10986;DHT22;5546;48.714;8.738;2024-02-23T01:05:03;8.80;99.90
10986;DHT22;5546;48.714;8.738;2024-02-23T01:07:29;8.80;99.90
10986;DHT22;5546;48.714;8.738;2024-02-23T01:09:54;8.80;99.90
10986;DHT22;5546;48.714;8.738;2024-02-23T01:12:20;8.30;99.90
10986;DHT22;5546;48.714;8.738;2024-02-23T01:14:45;8.50;99.90
10986;DHT22;5546;48.714;8.738;2024-02-23T01:17:14;8.60;99.90
10986;DHT22;5546;48.714;8.738;2024-02-23T01:19:41;8.90;99.90
10986;DHT22;5546;48.714;8.738;2024-02-23T01:22:06;9.00;99.90
10986;DHT22;5546;48.714;8.738;2024-02-23T01:24:32;9.30;99.90
10986;DHT22;5546;48.714;8.738;2024-02-23T01:26:58;9.40;99.90
10986;DHT22;5546;48.714;8.738;2024-02-23T01:29:28;9.60;99.90
10986;DHT22;5546;48.714;8.738;2024-02-23T01:31:54;9.10;99.90
10986;DHT22;5546;48.714;8.738;2024-02-23T01:34:20;8.80;99.90
10986;DHT22;5546;48.714;8.738;2024-02-23T01:36:47;8.90;99.90
10986;DHT22;5546;48.714;8.738;2024-02-23T01:39:12;9.10;99.90
10986;DHT22;5546;48.714;8.738;2024-02-23T01:41:38;9.10;99.90
10986;DHT22;5546;48.714;8.738;2024-02-23T01:44:04;9.00;99.90
10986;DHT22;5546;48.714;8.738;2024-02-23T01:46:30;9.10;99.90
10986;DHT22;5546;48.714;8.738;2024-02-23T01:48:56;9.10;99.90
10986;DHT22;5546;48.714;8.738;2024-02-23T01:51:22;9.00;99.90
10986;DHT22;5546;48.714;8.738;2024-02-23T01:53:48;9.00;99.90
10986;DHT22;5546;48.714;8.738;2024-02-23T01:56:14;9.00;99.90
10986;DHT22;5546;48.714;8.738;2024-02-23T01:58:43;8.90;99.90
10986;DHT22;5546;48.714;8.738;2024-02-23T02:01:10;8.90;99.90
10986;DHT22;5546;48.714;8.738;2024-02-23T02:03:37;8.80;99.90
10986;DHT22;5546;48.714;8.738;2024-02-23T02:06:07;9.10;99.90
10986;DHT22;5546;48.714;8.738;2024-02-23T02:08:36;9.00;99.90
10986;DHT22;5546;48.714;8.738;2024-02-23T02:11:02;8.90;99.70
10986;DHT22;5546;48.714;8.738;2024-02-23T02:13:28;8.80;99.90
10986;DHT22;5546;48.714;8.738;2024-02-23T02:15:54;8.40;99.90
10986;DHT22;5546;48.714;8.738;2024-02-23T02:18:20;8.30;99.90
10986;DHT22;5546;48.714;8.738;2024-02-23T02:20:55;8.40;99.90
10986;DHT22;5546;48.714;8.738;2024-02-23T02:23:22;8.60;99.80
10986;DHT22;5546;48.714;8.738;2024-02-23T02:25:55;8.70;99.90
10986;DHT22;5546;48.714;8.738;2024-02-23T02:28:20;9.00;99.90
10986;DHT22;5546;48.714;8.738;2024-02-23T02:30:46;8.90;99.90
10986;DHT22;5546;48.714;8.738;2024-02-23T02:33:12;9.00;99.90
10986;DHT22;5546;48.714;8.738;2024-02-23T02:35:37;9.10;99.70
10986;DHT22;5546;48.714;8.738;2024-02-23T02:38:03;8.70;99.30
10986;DHT22;5546;48.714;8.738;2024-02-23T02:42:54;8.80;99.20
10986;DHT22;5546;48.714;8.738;2024-02-23T02:45:20;9.00;99.90
10986;DHT22;5546;48.714;8.738;2024-02-23T02:47:45;8.60;98.90
10986;DHT22;5546;48.714;8.738;2024-02-23T02:50:11;8.40;99.80
10986;DHT22;5546;48.714;8.738;2024-02-23T02:52:36;8.70;99.90
10986;DHT22;5546;48.714;8.738;2024-02-23T02:55:02;8.60;99.90
10986;DHT22;5546;48.714;8.738;2024-02-23T02:57:28;8.80;99.90
10986;DHT22;5546;48.714;8.738;2024-02-23T02:59:55;8.70;99.90
10986;DHT22;5546;48.714;8.738;2024-02-23T03:02:20;8.50;99.90
10986;DHT22;5546;48.714;8.738;2024-02-23T03:04:49;8.40;99.90
10986;DHT22;5546;48.714;8.738;2024-02-23T03:07:18;8.60;99.90
10986;DHT22;5546;48.714;8.738;2024-02-23T03:09:44;7.80;99.90
10986;DHT22;5546;48.714;8.738;2024-02-23T03:12:10;8.10;99.90
10986;DHT22;5546;48.714;8.738;2024-02-23T03:14:36;8.20;99.90
10986;DHT22;5546;48.714;8.738;2024-02-23T03:17:04;8.00;99.90
10986;DHT22;5546;48.714;8.738;2024-02-23T03:19:30;8.30;99.90
10986;DHT22;5546;48.714;8.738;2024-02-23T03:21:57;8.40;99.90
10986;DHT22;5546;48.714;8.738;2024-02-23T03:24:23;8.40;99.90
10986;DHT22;5546;48.714;8.738;2024-02-23T03:26:48;8.20;99.90
10986;DHT22;5546;48.714;8.738;2024-02-23T03:34:07;8.30;99.90
10986;DHT22;5546;48.714;8.738;2024-02-23T03:36:33;8.00;99.90
10986;DHT22;5546;48.714;8.738;2024-02-23T03:41:25;7.90;99.90
10986;DHT22;5546;48.714;8.738;2024-02-23T03:43:51;8.00;99.90
10986;DHT22;5546;48.714;8.738;2024-02-23T03:46:16;8.00;99.90
10986;DHT22;5546;48.714;8.738;2024-02-23T03:48:43;7.90;99.90
10986;DHT22;5546;48.714;8.738;2024-02-23T03:51:09;8.00;99.90
10986;DHT22;5546;48.714;8.738;2024-02-23T03:56:01;7.90;99.90
10986;DHT22;5546;48.714;8.738;2024-02-23T03:58:26;7.80;99.90
10986;DHT22;5546;48.714;8.738;2024-02-23T04:00:52;7.70;99.90
10986;DHT22;5546;48.714;8.738;2024-02-23T04:03:17;7.70;99.90
10986;DHT22;5546;48.714;8.738;2024-02-23T04:08:09;7.70;99.90
10986;DHT22;5546;48.714;8.738;2024-02-23T04:13:01;7.50;99.90
10986;DHT22;5546;48.714;8.738;2024-02-23T04:15:27;7.50;99.90
10986;DHT22;5546;48.714;8.738;2024-02-23T04:17:52;7.60;99.90
10986;DHT22;5546;48.714;8.738;2024-02-23T04:20:18;7.20;99.90
10986;DHT22;5546;48.714;8.738;2024-02-23T04:22:44;7.30;99.90
10986;DHT22;5546;48.714;8.738;2024-02-23T04:25:10;7.50;99.90
10986;DHT22;5546;48.714;8.738;2024-02-23T04:27:35;7.40;99.90
10986;DHT22;5546;48.714;8.738;2024-02-23T04:30:01;7.50;99.90
10986;DHT22;5546;48.714;8.738;2024-02-23T04:34:53;7.40;99.90
10986;DHT22;5546;48.714;8.738;2024-02-23T04:37:19;7.40;99.90
10986;DHT22;5546;48.714;8.738;2024-02-23T04:39:44;7.70;99.90
10986;DHT22;5546;48.714;8.738;2024-02-23T04:42:10;7.70;99.90
10986;DHT22;5546;48.714;8.738;2024-02-23T04:44:36;7.40;99.70
10986;DHT22;5546;48.714;8.738;2024-02-23T04:47:01;7.40;99.90
10986;DHT22;5546;48.714;8.738;2024-02-23T04:49:27;7.30;99.90
10986;DHT22;5546;48.714;8.738;2024-02-23T04:51:53;7.40;99.90
10986;DHT22;5546;48.714;8.738;2024-02-23T04:54:18;7.50;99.90
10986;DHT22;5546;48.714;8.738;2024-02-23T04:56:44;7.60;99.90
10986;DHT22;5546;48.714;8.738;2024-02-23T04:59:10;7.60;99.90
10986;DHT22;5546;48.714;8.738;2024-02-23T05:01:38;7.30;99.90
10986;DHT22;5546;48.714;8.738;2024-02-23T05:04:04;7.40;99.90
10986;DHT22;5546;48.714;8.738;2024-02-23T05:06:30;7.40;99.90
10986;DHT22;5546;48.714;8.738;2024-02-23T05:08:56;7.40;99.90
10986;DHT22;5546;48.714;8.738;2024-02-23T05:11:21;7.20;99.90
10986;DHT22;5546;48.714;8.738;2024-02-23T05:13:47;7.20;99.90
10986;DHT22;5546;48.714;8.738;2024-02-23T05:16:16;7.20;99.90
10986;DHT22;5546;48.714;8.738;2024-02-23T05:18:42;7.10;99.90
10986;DHT22;5546;48.714;8.738;2024-02-23T05:21:09;6.90;99.90
10986;DHT22;5546;48.714;8.738;2024-02-23T05:23:35;6.80;99.90
10986;DHT22;5546;48.714;8.738;2024-02-23T05:28:26;6.90;99.90
10986;DHT22;5546;48.714;8.738;2024-02-23T05:30:54;7.10;99.90
10986;DHT22;5546;48.714;8.738;2024-02-23T05:33:19;7.30;99.90
10986;DHT22;5546;48.714;8.738;2024-02-23T05:35:46;7.10;99.90
10986;DHT22;5546;48.714;8.738;2024-02-23T05:38:14;6.80;99.70
10986;DHT22;5546;48.714;8.738;2024-02-23T05:40:39;6.80;99.90
10986;DHT22;5546;48.714;8.738;2024-02-23T05:43:05;6.90;99.90
10986;DHT22;5546;48.714;8.738;2024-02-23T05:45:31;7.00;99.90
10986;DHT22;5546;48.714;8.738;2024-02-23T05:47:56;7.10;99.90
10986;DHT22;5546;48.714;8.738;2024-02-23T05:50:22;6.80;99.90
10986;DHT22;5546;48.714;8.738;2024-02-23T05:52:47;7.00;99.90
10986;DHT22;5546;48.714;8.738;2024-02-23T05:55:13;7.20;99.90
10986;DHT22;5546;48.714;8.738;2024-02-23T05:57:40;7.10;99.90
10986;DHT22;5546;48.714;8.738;2024-02-23T06:00:06;6.90;99.90
10986;DHT22;5546;48.714;8.738;2024-02-23T06:02:32;6.90;99.90
10986;DHT22;5546;48.714;8.738;2024-02-23T06:04:58;7.20;99.90
10986;DHT22;5546;48.714;8.738;2024-02-23T06:07:24;7.20;99.90
10986;DHT22;5546;48.714;8.738;2024-02-23T06:09:55;7.20;99.90
10986;DHT22;5546;48.714;8.738;2024-02-23T06:12:21;7.10;99.90
10986;DHT22;5546;48.714;8.738;2024-02-23T06:14:47;7.10;99.90
10986;DHT22;5546;48.714;8.738;2024-02-23T06:19:38;6.80;99.90
10986;DHT22;5546;48.714;8.738;2024-02-23T06:22:04;6.90;99.90
10986;DHT22;5546;48.714;8.738;2024-02-23T06:24:29;7.00;99.90
10986;DHT22;5546;48.714;8.738;2024-02-23T06:29:23;7.10;99.90
10986;DHT22;5546;48.714;8.738;2024-02-23T06:31:48;6.70;99.90
10986;DHT22;5546;48.714;8.738;2024-02-23T06:34:15;6.80;99.90
10986;DHT22;5546;48.714;8.738;2024-02-23T06:36:41;6.80;99.90
10986;DHT22;5546;48.714;8.738;2024-02-23T06:39:07;6.70;99.90
10986;DHT22;5546;48.714;8.738;2024-02-23T06:43:59;6.90;99.90
10986;DHT22;5546;48.714;8.738;2024-02-23T06:46:25;6.60;99.90
10986;DHT22;5546;48.714;8.738;2024-02-23T06:51:17;6.70;99.90
10986;DHT22;5546;48.714;8.738;2024-02-23T06:53:42;6.80;99.90
10986;DHT22;5546;48.714;8.738;2024-02-23T06:56:08;7.00;99.90
10986;DHT22;5546;48.714;8.738;2024-02-23T07:10:47;7.30;99.90
10986;DHT22;5546;48.714;8.738;2024-02-23T07:13:12;7.30;99.90
10986;DHT22;5546;48.714;8.738;2024-02-23T07:18:04;7.40;99.90
10986;DHT22;5546;48.714;8.738;2024-02-23T07:20:30;7.40;99.90
10986;DHT22;5546;48.714;8.738;2024-02-23T07:25:22;7.80;99.90
10986;DHT22;5546;48.714;8.738;2024-02-23T07:27:51;7.50;99.90
10986;DHT22;5546;48.714;8.738;2024-02-23T07:30:17;7.60;99.90
10986;DHT22;5546;48.714;8.738;2024-02-23T07:35:09;8.10;99.90
10986;DHT22;5546;48.714;8.738;2024-02-23T07:44:54;8.50;99.90
10986;DHT22;5546;48.714;8.738;2024-02-23T07:49:46;8.90;99.90
10986;DHT22;5546;48.714;8.738;2024-02-23T07:52:11;8.50;99.80
10986;DHT22;5546;48.714;8.738;2024-02-23T07:54:37;8.40;99.90
10986;DHT22;5546;48.714;8.738;2024-02-23T07:57:02;8.50;99.90
10986;DHT22;5546;48.714;8.738;2024-02-23T08:01:55;8.90;99.10
10986;DHT22;5546;48.714;8.738;2024-02-23T08:04:21;9.40;99.50
10986;DHT22;5546;48.714;8.738;2024-02-23T08:06:48;10.40;99.20
10986;DHT22;5546;48.714;8.738;2024-02-23T08:09:14;11.50;98.10
10986;DHT22;5546;48.714;8.738;2024-02-23T08:11:39;13.00;95.90
10986;DHT22;5546;48.714;8.738;2024-02-23T08:14:05;14.80;92.90
10986;DHT22;5546;48.714;8.738;2024-02-23T08:16:30;14.90;93.10
10986;DHT22;5546;48.714;8.738;2024-02-23T08:18:56;16.10;89.60
10986;DHT22;5546;48.714;8.738;2024-02-23T08:21:21;16.00;88.20
10986;DHT22;5546;48.714;8.738;2024-02-23T08:23:47;16.40;86.60
10986;DHT22;5546;48.714;8.738;2024-02-23T08:26:12;17.30;84.60
10986;DHT22;5546;48.714;8.738;2024-02-23T08:28:38;18.00;82.30
10986;DHT22;5546;48.714;8.738;2024-02-23T08:31:04;18.10;80.40
10986;DHT22;5546;48.714;8.738;2024-02-23T08:33:30;19.00;79.40
10986;DHT22;5546;48.714;8.738;2024-02-23T08:35:55;20.30;74.00
10986;DHT22;5546;48.714;8.738;2024-02-23T08:38:21;21.10;65.00
10986;DHT22;5546;48.714;8.738;2024-02-23T08:40:46;21.90;62.70
10986;DHT22;5546;48.714;8.738;2024-02-23T08:43:13;20.70;60.90
10986;DHT22;5546;48.714;8.738;2024-02-23T08:45:39;20.70;63.90
10986;DHT22;5546;48.714;8.738;2024-02-23T08:48:05;19.50;65.40
10986;DHT22;5546;48.714;8.738;2024-02-23T08:50:30;17.90;66.30
10986;DHT22;5546;48.714;8.738;2024-02-23T08:52:56;17.90;67.00
10986;DHT22;5546;48.714;8.738;2024-02-23T08:55:21;17.40;71.30
10986;DHT22;5546;48.714;8.738;2024-02-23T08:57:47;17.10;69.00
10986;DHT22;5546;48.714;8.738;2024-02-23T09:05:07;15.50;74.80
10986;DHT22;5546;48.714;8.738;2024-02-23T09:07:33;15.00;77.10
10986;DHT22;5546;48.714;8.738;2024-02-23T09:09:59;13.70;79.00
10986;DHT22;5546;48.714;8.738;2024-02-23T09:12:24;13.40;81.70
10986;DHT22;5546;48.714;8.738;2024-02-23T09:17:17;12.90;82.80
10986;DHT22;5546;48.714;8.738;2024-02-23T09:19:44;11.60;84.40
10986;DHT22;5546;48.714;8.738;2024-02-23T09:22:09;11.10;86.90
10986;DHT22;5546;48.714;8.738;2024-02-23T09:24:35;11.20;85.80
10986;DHT22;5546;48.714;8.738;2024-02-23T09:27:00;11.20;88.10
10986;DHT22;5546;48.714;8.738;2024-02-23T09:29:26;11.20;86.60
10986;DHT22;5546;48.714;8.738;2024-02-23T09:31:52;11.20;89.00
10986;DHT22;5546;48.714;8.738;2024-02-23T09:34:18;11.20;86.70
10986;DHT22;5546;48.714;8.738;2024-02-23T09:36:43;11.60;87.30
10986;DHT22;5546;48.714;8.738;2024-02-23T09:39:09;12.20;85.10
10986;DHT22;5546;48.714;8.738;2024-02-23T09:41:35;12.70;84.20
10986;DHT22;5546;48.714;8.738;2024-02-23T09:44:02;12.40;83.60
10986;DHT22;5546;48.714;8.738;2024-02-23T09:46:29;11.80;83.60
10986;DHT22;5546;48.714;8.738;2024-02-23T09:48:55;11.80;85.00
10986;DHT22;5546;48.714;8.738;2024-02-23T09:51:22;11.80;86.70
10986;DHT22;5546;48.714;8.738;2024-02-23T09:53:49;11.90;85.70
10986;DHT22;5546;48.714;8.738;2024-02-23T09:56:17;12.40;84.20
10986;DHT22;5546;48.714;8.738;2024-02-23T09:58:44;13.20;81.90
10986;DHT22;5546;48.714;8.738;2024-02-23T10:01:12;13.70;82.50
10986;DHT22;5546;48.714;8.738;2024-02-23T10:03:41;15.20;76.10
10986;DHT22;5546;48.714;8.738;2024-02-23T10:06:07;15.20;75.00
10986;DHT22;5546;48.714;8.738;2024-02-23T10:08:32;13.70;76.60
10986;DHT22;5546;48.714;8.738;2024-02-23T10:11:00;12.60;78.30
10986;DHT22;5546;48.714;8.738;2024-02-23T10:15:52;12.00;79.80
10986;DHT22;5546;48.714;8.738;2024-02-23T10:18:19;12.20;80.70
10986;DHT22;5546;48.714;8.738;2024-02-23T10:20:48;12.10;77.50
10986;DHT22;5546;48.714;8.738;2024-02-23T10:23:15;11.80;79.00
10986;DHT22;5546;48.714;8.738;2024-02-23T10:25:41;12.50;77.90
10986;DHT22;5546;48.714;8.738;2024-02-23T10:28:07;13.50;75.40
10986;DHT22;5546;48.714;8.738;2024-02-23T10:30:33;13.10;75.80
10986;DHT22;5546;48.714;8.738;2024-02-23T10:32:59;13.00;74.40
10986;DHT22;5546;48.714;8.738;2024-02-23T10:35:25;12.10;78.70
10986;DHT22;5546;48.714;8.738;2024-02-23T10:37:53;12.50;78.90
10986;DHT22;5546;48.714;8.738;2024-02-23T10:40:19;13.50;76.20
10986;DHT22;5546;48.714;8.738;2024-02-23T10:42:46;13.50;76.80
10986;DHT22;5546;48.714;8.738;2024-02-23T10:45:20;13.20;77.50
10986;DHT22;5546;48.714;8.738;2024-02-23T10:47:50;12.10;83.00
10986;DHT22;5546;48.714;8.738;2024-02-23T10:50:17;11.50;84.90
10986;DHT22;5546;48.714;8.738;2024-02-23T10:52:45;10.80;88.50
10986;DHT22;5546;48.714;8.738;2024-02-23T10:55:12;10.90;89.90
10986;DHT22;5546;48.714;8.738;2024-02-23T10:57:37;11.20;89.10
10986;DHT22;5546;48.714;8.738;2024-02-23T11:00:04;11.20;88.00
10986;DHT22;5546;48.714;8.738;2024-02-23T11:02:40;10.80;89.10
10986;DHT22;5546;48.714;8.738;2024-02-23T11:07:38;11.10;89.20
10986;DHT22;5546;48.714;8.738;2024-02-23T11:10:05;11.00;89.40
10986;DHT22;5546;48.714;8.738;2024-02-23T11:12:31;11.50;88.30
10986;DHT22;5546;48.714;8.738;2024-02-23T11:14:58;11.70;86.90
10986;DHT22;5546;48.714;8.738;2024-02-23T11:17:27;11.80;86.30
10986;DHT22;5546;48.714;8.738;2024-02-23T11:19:55;12.10;84.90
10986;DHT22;5546;48.714;8.738;2024-02-23T11:22:32;11.70;85.10
10986;DHT22;5546;48.714;8.738;2024-02-23T11:25:04;11.90;85.20
10986;DHT22;5546;48.714;8.738;2024-02-23T11:27:40;12.50;83.50
10986;DHT22;5546;48.714;8.738;2024-02-23T11:30:09;11.80;83.10
10986;DHT22;5546;48.714;8.738;2024-02-23T11:32:47;11.20;85.90
10986;DHT22;5546;48.714;8.738;2024-02-23T11:35:17;11.40;84.90
10986;DHT22;5546;48.714;8.738;2024-02-23T11:37:52;11.40;85.20
10986;DHT22;5546;48.714;8.738;2024-02-23T11:40:32;11.20;85.30
10986;DHT22;5546;48.714;8.738;2024-02-23T11:42:58;10.90;86.50
10986;DHT22;5546;48.714;8.738;2024-02-23T11:45:25;10.70;87.40
10986;DHT22;5546;48.714;8.738;2024-02-23T11:50:19;11.50;84.60
10986;DHT22;5546;48.714;8.738;2024-02-23T11:52:47;12.10;84.80
10986;DHT22;5546;48.714;8.738;2024-02-23T11:55:18;12.50;83.00
10986;DHT22;5546;48.714;8.738;2024-02-23T11:57:45;12.60;83.40
10986;DHT22;5546;48.714;8.738;2024-02-23T12:00:11;12.70;81.70
10986;DHT22;5546;48.714;8.738;2024-02-23T12:02:36;12.40;81.60
10986;DHT22;5546;48.714;8.738;2024-02-23T12:05:02;11.40;81.80
10986;DHT22;5546;48.714;8.738;2024-02-23T12:07:32;11.50;84.10
10986;DHT22;5546;48.714;8.738;2024-02-23T12:09:58;11.50;84.20
10986;DHT22;5546;48.714;8.738;2024-02-23T12:12:27;11.20;84.70
10986;DHT22;5546;48.714;8.738;2024-02-23T12:14:53;11.10;86.30
10986;DHT22;5546;48.714;8.738;2024-02-23T12:17:18;10.90;86.00
10986;DHT22;5546;48.714;8.738;2024-02-23T12:19:44;10.20;88.90
10986;DHT22;5546;48.714;8.738;2024-02-23T12:22:10;10.20;89.80
10986;DHT22;5546;48.714;8.738;2024-02-23T12:24:41;10.20;89.80
10986;DHT22;5546;48.714;8.738;2024-02-23T12:27:07;10.50;89.30
10986;DHT22;5546;48.714;8.738;2024-02-23T12:29:32;10.90;88.90
10986;DHT22;5546;48.714;8.738;2024-02-23T12:32:07;10.90;88.00
10986;DHT22;5546;48.714;8.738;2024-02-23T12:34:33;10.90;88.40
10986;DHT22;5546;48.714;8.738;2024-02-23T12:37:01;11.10;87.80
10986;DHT22;5546;48.714;8.738;2024-02-23T12:39:27;11.70;88.50
10986;DHT22;5546;48.714;8.738;2024-02-23T12:41:52;12.30;84.70
10986;DHT22;5546;48.714;8.738;2024-02-23T12:44:18;12.80;82.30
10986;DHT22;5546;48.714;8.738;2024-02-23T12:46:43;13.50;80.20
10986;DHT22;5546;48.714;8.738;2024-02-23T12:49:09;13.60;80.20
10986;DHT22;5546;48.714;8.738;2024-02-23T12:51:34;13.30;79.60
10986;DHT22;5546;48.714;8.738;2024-02-23T12:54:00;12.30;80.40
10986;DHT22;5546;48.714;8.738;2024-02-23T12:56:26;11.10;84.40
10986;DHT22;5546;48.714;8.738;2024-02-23T12:58:51;11.10;85.60
10986;DHT22;5546;48.714;8.738;2024-02-23T13:01:19;11.70;84.10
10986;DHT22;5546;48.714;8.738;2024-02-23T13:03:44;11.50;83.10
10986;DHT22;5546;48.714;8.738;2024-02-23T13:06:10;11.30;83.90
10986;DHT22;5546;48.714;8.738;2024-02-23T13:08:36;11.50;84.50
10986;DHT22;5546;48.714;8.738;2024-02-23T13:11:01;11.30;84.30
10986;DHT22;5546;48.714;8.738;2024-02-23T13:13:27;11.50;83.80
10986;DHT22;5546;48.714;8.738;2024-02-23T13:15:54;11.50;84.50
10986;DHT22;5546;48.714;8.738;2024-02-23T13:18:20;11.40;85.30
10986;DHT22;5546;48.714;8.738;2024-02-23T13:20:47;10.70;88.30
10986;DHT22;5546;48.714;8.738;2024-02-23T13:23:12;10.60;88.90
10986;DHT22;5546;48.714;8.738;2024-02-23T13:25:39;10.60;89.60
10986;DHT22;5546;48.714;8.738;2024-02-23T13:28:05;10.90;89.00
10986;DHT22;5546;48.714;8.738;2024-02-23T13:30:34;11.20;88.10
10986;DHT22;5546;48.714;8.738;2024-02-23T13:33:00;11.10;88.00
10986;DHT22;5546;48.714;8.738;2024-02-23T13:35:26;11.20;88.00
10986;DHT22;5546;48.714;8.738;2024-02-23T13:37:52;11.20;88.80
10986;DHT22;5546;48.714;8.738;2024-02-23T13:40:18;11.20;87.30
10986;DHT22;5546;48.714;8.738;2024-02-23T13:42:43;11.40;87.10
10986;DHT22;5546;48.714;8.738;2024-02-23T13:45:11;12.20;85.60
10986;DHT22;5546;48.714;8.738;2024-02-23T13:47:39;12.40;84.70
10986;DHT22;5546;48.714;8.738;2024-02-23T13:50:06;12.80;82.90
10986;DHT22;5546;48.714;8.738;2024-02-23T13:52:31;12.90;82.70
10986;DHT22;5546;48.714;8.738;2024-02-23T13:54:57;12.90;83.00
10986;DHT22;5546;48.714;8.738;2024-02-23T13:57:23;13.90;79.20
10986;DHT22;5546;48.714;8.738;2024-02-23T13:59:48;13.50;78.60
10986;DHT22;5546;48.714;8.738;2024-02-23T14:02:14;13.40;78.30
10986;DHT22;5546;48.714;8.738;2024-02-23T14:04:40;12.30;81.30
10986;DHT22;5546;48.714;8.738;2024-02-23T14:07:07;12.30;83.10
10986;DHT22;5546;48.714;8.738;2024-02-23T14:09:32;12.10;83.00
10986;DHT22;5546;48.714;8.738;2024-02-23T14:11:58;11.70;83.80
10986;DHT22;5546;48.714;8.738;2024-02-23T14:14:23;11.80;83.80
10986;DHT22;5546;48.714;8.738;2024-02-23T14:16:49;11.80;84.30
10986;DHT22;5546;48.714;8.738;2024-02-23T14:21:41;12.10;83.90
10986;DHT22;5546;48.714;8.738;2024-02-23T14:24:06;11.90;83.30
10986;DHT22;5546;48.714;8.738;2024-02-23T14:26:32;11.40;85.70
10986;DHT22;5546;48.714;8.738;2024-02-23T14:28:58;11.80;85.10
10986;DHT22;5546;48.714;8.738;2024-02-23T14:31:24;11.80;83.70
10986;DHT22;5546;48.714;8.738;2024-02-23T14:33:50;11.40;85.70
10986;DHT22;5546;48.714;8.738;2024-02-23T14:36:17;11.60;86.20
10986;DHT22;5546;48.714;8.738;2024-02-23T14:38:42;11.70;84.80
10986;DHT22;5546;48.714;8.738;2024-02-23T14:41:08;11.50;86.30
10986;DHT22;5546;48.714;8.738;2024-02-23T14:43:35;11.20;87.50
10986;DHT22;5546;48.714;8.738;2024-02-23T14:46:00;11.60;87.00
10986;DHT22;5546;48.714;8.738;2024-02-23T14:48:26;11.30;88.40
10986;DHT22;5546;48.714;8.738;2024-02-23T14:50:52;10.90;90.20
10986;DHT22;5546;48.714;8.738;2024-02-23T14:53:17;11.00;90.40
10986;DHT22;5546;48.714;8.738;2024-02-23T14:55:43;9.70;92.20
10986;DHT22;5546;48.714;8.738;2024-02-23T14:58:08;9.40;93.30
10986;DHT22;5546;48.714;8.738;2024-02-23T15:00:34;9.80;93.30
10986;DHT22;5546;48.714;8.738;2024-02-23T15:03:00;9.70;93.60
10986;DHT22;5546;48.714;8.738;2024-02-23T15:05:25;10.50;91.90
10986;DHT22;5546;48.714;8.738;2024-02-23T15:07:51;10.50;92.20
10986;DHT22;5546;48.714;8.738;2024-02-23T15:10:17;11.00;90.70
10986;DHT22;5546;48.714;8.738;2024-02-23T15:12:42;10.60;90.60
10986;DHT22;5546;48.714;8.738;2024-02-23T15:15:08;10.30;91.30
10986;DHT22;5546;48.714;8.738;2024-02-23T15:17:35;10.00;91.60
10986;DHT22;5546;48.714;8.738;2024-02-23T15:20:00;9.90;91.90
10986;DHT22;5546;48.714;8.738;2024-02-23T15:22:26;10.10;91.90
10986;DHT22;5546;48.714;8.738;2024-02-23T15:27:21;10.20;95.00
10986;DHT22;5546;48.714;8.738;2024-02-23T15:29:46;10.60;95.00
10986;DHT22;5546;48.714;8.738;2024-02-23T15:32:13;10.60;94.30
10986;DHT22;5546;48.714;8.738;2024-02-23T15:34:40;10.60;95.60
10986;DHT22;5546;48.714;8.738;2024-02-23T15:37:06;10.70;95.10
10986;DHT22;5546;48.714;8.738;2024-02-23T15:39:31;10.70;95.30
10986;DHT22;5546;48.714;8.738;2024-02-23T15:41:57;10.90;94.30
10986;DHT22;5546;48.714;8.738;2024-02-23T15:44:22;10.70;94.50
10986;DHT22;5546;48.714;8.738;2024-02-23T15:46:48;10.70;94.10
10986;DHT22;5546;48.714;8.738;2024-02-23T15:49:14;10.90;94.30
10986;DHT22;5546;48.714;8.738;2024-02-23T15:51:43;11.00;94.80
10986;DHT22;5546;48.714;8.738;2024-02-23T15:56:34;11.20;93.80
10986;DHT22;5546;48.714;8.738;2024-02-23T15:59:00;11.10;94.40
10986;DHT22;5546;48.714;8.738;2024-02-23T16:01:33;11.20;94.80
10986;DHT22;5546;48.714;8.738;2024-02-23T16:06:24;11.20;94.00
10986;DHT22;5546;48.714;8.738;2024-02-23T16:08:50;11.10;94.40
10986;DHT22;5546;48.714;8.738;2024-02-23T16:11:17;11.00;94.70
10986;DHT22;5546;48.714;8.738;2024-02-23T16:13:43;11.00;95.30
10986;DHT22;5546;48.714;8.738;2024-02-23T16:16:10;11.00;94.80
10986;DHT22;5546;48.714;8.738;2024-02-23T16:18:37;10.60;95.50
10986;DHT22;5546;48.714;8.738;2024-02-23T16:21:03;10.30;95.80
10986;DHT22;5546;48.714;8.738;2024-02-23T16:23:29;10.30;96.00
10986;DHT22;5546;48.714;8.738;2024-02-23T16:25:55;10.20;95.80
10986;DHT22;5546;48.714;8.738;2024-02-23T16:28:21;10.30;96.60
10986;DHT22;5546;48.714;8.738;2024-02-23T16:30:47;9.80;97.30
10986;DHT22;5546;48.714;8.738;2024-02-23T16:33:13;9.90;97.10
10986;DHT22;5546;48.714;8.738;2024-02-23T16:35:39;9.80;97.00
10986;DHT22;5546;48.714;8.738;2024-02-23T16:38:05;9.80;97.70
10986;DHT22;5546;48.714;8.738;2024-02-23T16:40:30;9.90;97.40
10986;DHT22;5546;48.714;8.738;2024-02-23T16:42:57;9.80;97.70
10986;DHT22;5546;48.714;8.738;2024-02-23T16:45:23;9.80;97.30
10986;DHT22;5546;48.714;8.738;2024-02-23T16:47:49;9.60;97.20
10986;DHT22;5546;48.714;8.738;2024-02-23T16:50:15;9.60;97.50
10986;DHT22;5546;48.714;8.738;2024-02-23T16:52:40;9.20;97.70
10986;DHT22;5546;48.714;8.738;2024-02-23T16:55:06;9.20;98.20
10986;DHT22;5546;48.714;8.738;2024-02-23T16:57:33;8.90;98.90
10986;DHT22;5546;48.714;8.738;2024-02-23T17:02:24;8.80;99.00
10986;DHT22;5546;48.714;8.738;2024-02-23T17:04:50;9.00;99.10
10986;DHT22;5546;48.714;8.738;2024-02-23T17:09:41;8.60;99.30
10986;DHT22;5546;48.714;8.738;2024-02-23T17:12:09;8.50;99.90
10986;DHT22;5546;48.714;8.738;2024-02-23T17:14:34;8.60;99.50
10986;DHT22;5546;48.714;8.738;2024-02-23T17:17:00;8.60;99.40
10986;DHT22;5546;48.714;8.738;2024-02-23T17:19:26;8.50;99.30
10986;DHT22;5546;48.714;8.738;2024-02-23T17:21:52;8.50;99.60
10986;DHT22;5546;48.714;8.738;2024-02-23T17:24:17;8.20;99.90